Time;durP1;ratioP1;P1;durP2;ratioP2;P2;SDS_P1;SDS_P2;PMS_P1;PMS_P2;Temp;Humidity;BMP_temperature;BMP_pressure;BME280_temperature;BME280_humidity;BME280_pressure;Samples;Min_cycle;Max_cycle;Signal;HPM_P1;HPM_P2
2022/04/12 00:00:33;;;;;;;10.15;3.70;;;;;;;0.69;100.00;101431.59;5046815;28;20124;-77
2022/04/12 00:02:58;;;;;;;5.88;2.85;;;;;;;0.62;100.00;101433.72;5045837;28;20031;-76
2022/04/12 00:05:24;;;;;;;6.63;3.15;;;;;;;0.63;100.00;101435.44;5029121;28;20071;-75
2022/04/12 00:07:49;;;;;;;11.80;3.15;;;;;;;0.60;100.00;101432.94;5047138;28;20459;-75
2022/04/12 00:10:16;;;;;;;8.73;4.15;;;;;;;0.58;100.00;101436.56;5028862;28;20514;-76
2022/04/12 00:12:42;;;;;;;9.98;4.20;;;;;;;0.58;100.00;101432.16;5045715;28;20041;-77
2022/04/12 00:15:09;;;;;;;9.02;3.17;;;;;;;0.53;100.00;101428.94;5028804;28;20017;-76
2022/04/12 00:20:20;;;;;;;11.18;3.17;;;;;;;0.44;100.00;101429.41;5045512;28;20037;-77
2022/04/12 00:22:46;;;;;;;8.98;4.03;;;;;;;0.43;100.00;101434.78;5028918;28;20025;-76
2022/04/12 00:25:12;;;;;;;18.80;5.35;;;;;;;0.40;100.00;101438.41;5045430;28;20040;-77
2022/04/12 00:27:38;;;;;;;8.32;3.35;;;;;;;0.39;100.00;101442.78;5045672;28;20037;-76
2022/04/12 00:30:05;;;;;;;19.92;5.63;;;;;;;0.39;100.00;101437.53;5046458;28;20068;-76
2022/04/12 00:32:31;;;;;;;17.05;6.22;;;;;;;0.42;100.00;101436.53;5046018;28;20079;-76
2022/04/12 00:34:56;;;;;;;12.13;5.28;;;;;;;0.45;100.00;101433.75;5044935;28;20486;-76
2022/04/12 00:37:22;;;;;;;11.27;5.80;;;;;;;0.48;100.00;101443.25;5045517;28;20025;-77
2022/04/12 00:39:47;;;;;;;13.70;4.97;;;;;;;0.46;100.00;101442.50;5045138;28;20033;-76
2022/04/12 00:42:13;;;;;;;14.87;5.27;;;;;;;0.44;100.00;101445.19;5027997;28;20272;-76
2022/04/12 00:44:38;;;;;;;15.70;4.57;;;;;;;0.54;100.00;101445.53;5028628;28;20040;-77
2022/04/12 00:47:04;;;;;;;14.90;6.10;;;;;;;0.75;100.00;101448.81;5045133;28;20575;-77
2022/04/12 00:49:29;;;;;;;13.20;4.70;;;;;;;0.77;100.00;101442.56;5024833;28;20284;-75
2022/04/12 00:51:55;;;;;;;9.63;4.70;;;;;;;0.78;100.00;101444.25;5025298;28;20021;-76
2022/04/12 00:54:22;;;;;;;12.73;4.32;;;;;;;0.73;100.00;101440.19;5045380;28;20029;-77
2022/04/12 00:56:51;;;;;;;16.55;5.10;;;;;;;0.68;100.00;101442.19;5027708;28;20029;-76
2022/04/12 00:59:18;;;;;;;10.32;4.18;;;;;;;0.75;100.00;101440.94;5020250;28;20132;-75
2022/04/12 01:01:44;;;;;;;12.32;4.38;;;;;;;0.71;100.00;101437.63;5027807;28;20035;-75
2022/04/12 01:04:09;;;;;;;10.83;4.17;;;;;;;0.72;100.00;101436.69;5046019;28;20037;-76
2022/04/12 01:06:36;;;;;;;9.15;4.47;;;;;;;0.77;100.00;101441.69;5028134;28;20310;-76
2022/04/12 01:09:05;;;;;;;8.63;3.75;;;;;;;0.77;100.00;101434.69;5028315;28;20500;-76
2022/04/12 01:11:32;;;;;;;15.60;5.72;;;;;;;0.75;100.00;101422.53;5024293;28;20087;-77
2022/04/12 01:13:57;;;;;;;10.45;4.60;;;;;;;0.72;100.00;101418.28;5025784;28;20032;-77
2022/04/12 01:16:23;;;;;;;15.60;5.83;;;;;;;0.70;100.00;101414.91;5027177;28;20736;-77
2022/04/12 01:18:48;;;;;;;9.03;4.37;;;;;;;0.68;100.00;101418.53;5045906;28;20275;-77
2022/04/12 01:21:14;;;;;;;8.27;4.30;;;;;;;0.65;100.00;101416.94;5044030;28;20053;-77
2022/04/12 01:23:59;;;;;;;11.45;4.90;;;;;;;0.66;100.00;101425.69;5045939;28;20053;-76
2022/04/12 01:26:24;;;;;;;7.00;3.38;;;;;;;0.64;100.00;101420.50;5037798;28;20098;-77
2022/04/12 01:28:50;;;;;;;10.98;4.88;;;;;;;0.60;100.00;101425.06;5044654;28;20029;-76
2022/04/12 01:31:15;;;;;;;8.95;4.18;;;;;;;0.54;100.00;101414.88;5045311;28;20075;-77
2022/04/12 01:33:41;;;;;;;7.80;3.90;;;;;;;0.53;100.00;101412.34;5044571;28;20025;-77
2022/04/12 01:36:06;;;;;;;8.23;4.00;;;;;;;0.45;100.00;101406.66;5044391;28;20513;-76
2022/04/12 01:38:31;;;;;;;10.90;4.30;;;;;;;0.46;100.00;101392.56;5044561;28;20127;-77
2022/04/12 01:40:57;;;;;;;11.00;4.72;;;;;;;0.35;100.00;101398.38;5025181;28;20056;-77
2022/04/12 01:43:22;;;;;;;13.07;5.13;;;;;;;0.30;100.00;101405.66;5034831;28;20029;-77
2022/04/12 01:45:48;;;;;;;16.30;5.97;;;;;;;0.28;100.00;101407.50;5027608;28;20025;-77
2022/04/12 01:48:13;;;;;;;11.17;4.43;;;;;;;0.29;100.00;101407.44;5044253;28;20037;-76
2022/04/12 01:50:38;;;;;;;10.93;4.80;;;;;;;0.23;100.00;101413.00;5043917;28;20033;-76
2022/04/12 01:53:04;;;;;;;10.52;4.72;;;;;;;0.15;100.00;101402.06;5045210;28;20882;-76
2022/04/12 01:55:30;;;;;;;13.38;4.15;;;;;;;0.12;100.00;101402.22;5044434;28;20032;-77
2022/04/12 01:57:55;;;;;;;13.30;5.10;;;;;;;0.10;100.00;101399.69;5044170;28;20029;-76
2022/04/12 02:00:20;;;;;;;8.43;4.73;;;;;;;0.07;100.00;101398.97;5044286;28;20291;-77
2022/04/12 02:02:46;;;;;;;8.88;4.63;;;;;;;0.02;100.00;101400.97;5044404;28;20035;-77
2022/04/12 02:05:11;;;;;;;18.52;4.82;;;;;;;0.05;100.00;101390.31;5044398;28;20033;-77
2022/04/12 02:07:37;;;;;;;9.38;4.90;;;;;;;0.02;100.00;101393.94;5029729;28;20469;-77
2022/04/12 02:10:04;;;;;;;7.57;3.63;;;;;;;-0.02;100.00;101393.28;5032150;28;20068;-77
2022/04/12 02:12:29;;;;;;;9.73;4.70;;;;;;;-0.05;100.00;101389.94;5032036;28;20029;-76
2022/04/12 02:14:55;;;;;;;9.98;4.20;;;;;;;-0.16;100.00;101381.78;5048753;28;20083;-77
2022/04/12 02:17:21;;;;;;;10.57;4.07;;;;;;;-0.20;100.00;101386.34;5048817;28;20112;-77
2022/04/12 02:19:47;;;;;;;6.88;3.53;;;;;;;-0.20;100.00;101394.22;5049876;28;20175;-77
2022/04/12 02:22:12;;;;;;;8.20;4.75;;;;;;;-0.23;100.00;101389.13;5048275;28;20033;-77
2022/04/12 02:24:38;;;;;;;11.97;4.47;;;;;;;-0.21;100.00;101387.28;5048491;28;20029;-78
2022/04/12 02:27:04;;;;;;;10.23;5.28;;;;;;;-0.19;100.00;101385.41;5031851;28;20352;-76
2022/04/12 02:29:29;;;;;;;9.40;4.43;;;;;;;-0.25;100.00;101383.94;5049729;28;20036;-75
2022/04/12 02:31:54;;;;;;;7.65;4.15;;;;;;;-0.27;100.00;101385.78;5031555;28;20135;-77
2022/04/12 02:34:20;;;;;;;9.55;4.22;;;;;;;-0.23;100.00;101378.63;5048232;28;20033;-76
2022/04/12 02:36:47;;;;;;;12.00;6.13;;;;;;;-0.25;100.00;101377.84;5048784;28;20037;-77
2022/04/12 02:39:12;;;;;;;12.23;4.80;;;;;;;-0.23;100.00;101374.22;5031394;28;20572;-77
2022/04/12 02:41:38;;;;;;;10.40;4.67;;;;;;;-0.24;100.00;101374.28;5031785;28;20033;-77
2022/04/12 02:44:03;;;;;;;10.27;4.80;;;;;;;-0.24;100.00;101379.53;5048431;28;20278;-77
2022/04/12 02:46:29;;;;;;;10.57;5.18;;;;;;;-0.18;100.00;101376.59;5048015;28;20371;-76
2022/04/12 02:48:54;;;;;;;10.82;4.82;;;;;;;-0.04;100.00;101379.38;5031801;28;20490;-77
2022/04/12 02:51:19;;;;;;;9.00;4.17;;;;;;;0.05;100.00;101374.56;5049125;28;20040;-77
2022/04/12 02:53:45;;;;;;;13.07;4.30;;;;;;;0.12;100.00;101375.97;5048554;28;20031;-77
2022/04/12 02:56:10;;;;;;;9.20;4.10;;;;;;;0.23;100.00;101372.78;5047868;28;20033;-77
2022/04/12 02:58:36;;;;;;;6.30;2.93;;;;;;;0.33;100.00;101374.84;5048047;28;20051;-77
2022/04/12 03:01:01;;;;;;;9.73;4.20;;;;;;;0.50;100.00;101370.47;5047374;28;20033;-76
2022/04/12 03:03:27;;;;;;;6.70;3.03;;;;;;;0.56;100.00;101370.13;5031200;28;20063;-76
2022/04/12 03:05:52;;;;;;;7.30;3.10;;;;;;;0.60;100.00;101361.97;5028233;28;20406;-77
2022/04/12 03:08:17;;;;;;;9.13;3.50;;;;;;;0.66;100.00;101354.72;5049267;28;20530;-77
2022/04/12 03:10:43;;;;;;;7.40;3.47;;;;;;;0.64;100.00;101354.78;5047717;28;20036;-75
2022/04/12 03:13:08;;;;;;;6.63;3.70;;;;;;;0.75;100.00;101351.56;5031238;28;20028;-77
2022/04/12 03:15:34;;;;;;;16.23;5.23;;;;;;;0.83;100.00;101341.50;5047918;28;20060;-76
2022/04/12 03:17:59;;;;;;;6.30;3.80;;;;;;;1.00;100.00;101345.78;5048572;28;20617;-75
2022/04/12 03:20:24;;;;;;;8.17;4.57;;;;;;;1.15;100.00;101341.47;5047124;28;20090;-77
2022/04/12 03:22:50;;;;;;;11.20;4.47;;;;;;;1.26;100.00;101326.78;5046675;28;20029;-77
2022/04/12 03:25:15;;;;;;;10.33;4.40;;;;;;;1.25;100.00;101325.06;5047077;28;20029;-77
2022/04/12 03:27:41;;;;;;;18.70;4.75;;;;;;;1.26;100.00;101311.00;5047866;28;20286;-76
2022/04/12 03:30:07;;;;;;;9.75;4.25;;;;;;;1.24;100.00;101310.22;5029723;28;20128;-77
2022/04/12 03:32:32;;;;;;;8.30;4.13;;;;;;;1.30;100.00;101301.13;5046793;28;20053;-77
2022/04/12 03:34:57;;;;;;;10.80;5.13;;;;;;;1.48;100.00;101312.38;5047943;28;20104;-77
2022/04/12 03:37:23;;;;;;;7.77;3.70;;;;;;;1.61;100.00;101308.06;5048161;28;20696;-77
2022/04/12 03:39:50;;;;;;;9.15;4.43;;;;;;;1.66;100.00;101298.13;5046492;28;20055;-77
2022/04/12 03:42:18;;;;;;;15.90;4.97;;;;;;;1.67;100.00;101297.16;5046327;28;20260;-76
2022/04/12 03:44:44;;;;;;;7.75;3.45;;;;;;;1.67;100.00;101302.44;5046243;28;20028;-76
2022/04/12 03:47:09;;;;;;;13.90;4.85;;;;;;;1.74;100.00;101294.19;5030115;28;20513;-76
2022/04/12 03:49:34;;;;;;;7.40;3.43;;;;;;;1.75;100.00;101294.06;5046462;28;20036;-77
2022/04/12 03:52:00;;;;;;;10.10;3.73;;;;;;;1.78;100.00;101290.41;5028185;28;20312;-77
2022/04/12 03:54:25;;;;;;;14.10;4.20;;;;;;;1.84;100.00;101300.56;5030574;28;20043;-77
2022/04/12 03:56:51;;;;;;;10.23;3.85;;;;;;;1.78;100.00;101295.66;5047242;28;20025;-77
2022/04/12 03:59:16;;;;;;;11.43;4.03;;;;;;;1.72;100.00;101294.25;5048787;28;20124;-77
2022/04/12 04:01:42;;;;;;;6.80;3.47;;;;;;;1.69;100.00;101297.94;5047056;28;20025;-77
2022/04/12 04:04:09;;;;;;;4.87;2.80;;;;;;;1.80;100.00;101309.59;5046990;28;20348;-77
2022/04/12 04:06:35;;;;;;;7.82;4.45;;;;;;;1.84;100.00;101313.75;5046708;28;20033;-76
2022/04/12 04:09:00;;;;;;;7.03;2.97;;;;;;;1.86;100.00;101306.59;5030318;28;20067;-77
2022/04/12 04:11:25;;;;;;;9.33;3.90;;;;;;;1.86;100.00;101306.59;5046849;28;20063;-77
2022/04/12 04:13:51;;;;;;;10.80;3.80;;;;;;;1.85;100.00;101307.53;5030223;28;20299;-77
2022/04/12 04:16:18;;;;;;;7.72;3.30;;;;;;;1.93;100.00;101312.34;5046180;28;20106;-77
2022/04/12 04:18:43;;;;;;;6.18;2.95;;;;;;;1.98;100.00;101305.00;5046756;28;20028;-77
2022/04/12 04:21:09;;;;;;;5.47;3.40;;;;;;;2.00;100.00;101297.88;5030031;28;20049;-75
2022/04/12 04:23:34;;;;;;;6.67;3.40;;;;;;;2.05;100.00;101296.63;5047241;28;20025;-77
2022/04/12 04:26:00;;;;;;;5.22;2.50;;;;;;;2.04;100.00;101300.22;5046686;28;20028;-77
2022/04/12 04:28:29;;;;;;;6.38;2.95;;;;;;;2.06;100.00;101292.19;5046848;28;20036;-77
2022/04/12 04:30:55;;;;;;;8.27;2.88;;;;;;;2.09;100.00;101294.66;5046914;28;20048;-76
2022/04/12 04:33:20;;;;;;;7.82;3.30;;;;;;;2.10;100.00;101284.00;5046502;28;20035;-78
2022/04/12 04:35:47;;;;;;;7.18;3.50;;;;;;;2.15;100.00;101291.63;5046138;28;20498;-77
2022/04/12 04:38:13;;;;;;;6.47;3.13;;;;;;;2.16;100.00;101289.88;5047514;28;20021;-77
2022/04/12 04:40:39;;;;;;;6.82;2.40;;;;;;;2.23;100.00;101299.94;5046448;28;20029;-76
2022/04/12 04:43:05;;;;;;;9.02;2.95;;;;;;;2.29;100.00;101293.41;5046266;28;20036;-76
2022/04/12 04:45:31;;;;;;;8.30;2.53;;;;;;;2.32;100.00;101287.97;5025917;28;20037;-77
2022/04/12 04:48:02;;;;;;;9.85;2.70;;;;;;;2.36;100.00;101294.72;5027158;28;20025;-77
2022/04/12 04:50:30;;;;;;;7.47;3.17;;;;;;;2.41;100.00;101290.03;5047433;28;20136;-76
2022/04/12 04:52:56;;;;;;;5.05;2.28;;;;;;;2.47;100.00;101294.91;5029512;28;20082;-77
2022/04/12 04:55:22;;;;;;;6.28;3.10;;;;;;;2.58;100.00;101293.41;5047704;28;20029;-76
2022/04/12 04:57:47;;;;;;;8.20;3.97;;;;;;;2.62;100.00;101287.84;5046280;28;20051;-77
2022/04/12 05:00:15;;;;;;;8.37;2.67;;;;;;;2.72;100.00;101291.56;5046736;28;21007;-77
2022/04/12 05:02:51;;;;;;;7.45;2.65;;;;;;;2.82;100.00;101286.53;5046763;28;20039;-78
2022/04/12 05:05:17;;;;;;;7.07;2.90;;;;;;;2.90;100.00;101294.81;5038531;28;20029;-77
2022/04/12 05:07:45;;;;;;;9.95;2.58;;;;;;;2.91;100.00;101279.81;5027647;28;20036;-78
2022/04/12 05:10:14;;;;;;;7.45;3.95;;;;;;;2.95;100.00;101276.88;5030042;28;20041;-77
2022/04/12 05:12:40;;;;;;;14.18;4.32;;;;;;;2.93;100.00;101272.66;5029372;28;20056;-76
2022/04/12 05:15:06;;;;;;;4.95;2.60;;;;;;;3.04;100.00;101271.94;5046750;28;20052;-78
2022/04/12 05:17:31;;;;;;;10.50;3.20;;;;;;;3.05;100.00;101261.28;5029773;28;20041;-78
2022/04/12 05:19:57;;;;;;;8.05;3.42;;;;;;;3.12;100.00;101261.75;5046218;28;20017;-78
2022/04/12 05:22:23;;;;;;;7.00;3.78;;;;;;;3.22;100.00;101267.25;5029502;28;20033;-77
2022/04/12 05:24:49;;;;;;;6.38;3.20;;;;;;;3.25;100.00;101256.47;5045563;28;20032;-76
2022/04/12 05:27:15;;;;;;;12.13;3.72;;;;;;;3.37;100.00;101253.88;5045762;28;20056;-76
2022/04/12 05:29:41;;;;;;;8.05;4.28;;;;;;;3.44;100.00;101251.66;5045787;28;20025;-77
2022/04/12 05:32:08;;;;;;;7.00;3.83;;;;;;;3.48;100.00;101252.28;5028488;28;20044;-77
2022/04/12 05:34:33;;;;;;;10.68;4.32;;;;;;;3.56;100.00;101250.00;5029728;28;20060;-77
2022/04/12 05:36:58;;;;;;;7.47;4.80;;;;;;;3.61;100.00;101253.16;5047918;28;20146;-76
2022/04/12 05:39:24;;;;;;;11.60;4.20;;;;;;;3.57;100.00;101241.09;5032874;28;20036;-76
2022/04/12 05:41:49;;;;;;;10.83;3.70;;;;;;;3.55;100.00;101243.00;5029625;28;20121;-77
2022/04/12 05:44:14;;;;;;;6.40;3.90;;;;;;;3.73;100.00;101277.88;5035873;28;20029;-78
2022/04/12 05:46:40;;;;;;;7.95;4.13;;;;;;;3.84;100.00;101279.75;5051883;28;20158;-78
2022/04/12 05:49:05;;;;;;;9.57;4.37;;;;;;;4.25;100.00;101294.53;5034423;28;20542;-78
2022/04/12 05:51:31;;;;;;;8.77;3.90;;;;;;;4.55;100.00;101265.06;5049591;28;20040;-77
2022/04/12 05:53:56;;;;;;;8.77;3.93;;;;;;;4.72;100.00;101242.69;5050876;28;20029;-77
2022/04/12 05:56:21;;;;;;;11.77;4.07;;;;;;;5.09;100.00;101216.97;5033091;28;20029;-77
2022/04/12 05:58:47;;;;;;;6.90;3.80;;;;;;;5.79;100.00;101208.06;5033015;28;21005;-77
2022/04/12 06:01:12;;;;;;;7.73;3.77;;;;;;;5.62;100.00;101144.97;5051709;22;20123;-77
2022/04/12 06:03:37;;;;;;;9.13;3.90;;;;;;;6.04;100.00;101146.06;5028840;28;20068;-77
2022/04/12 06:06:03;;;;;;;10.87;3.40;;;;;;;6.23;96.30;101096.84;5031073;28;20030;-77
2022/04/12 06:08:28;;;;;;;7.65;3.05;;;;;;;6.40;93.32;101067.13;5029652;28;20737;-76
2022/04/12 06:10:54;;;;;;;7.93;3.50;;;;;;;6.54;91.22;101058.84;5021840;28;20047;-76
2022/04/12 06:13:19;;;;;;;8.27;3.50;;;;;;;6.36;89.25;101011.81;5030299;28;20079;-75
2022/04/12 06:15:45;;;;;;;6.63;3.10;;;;;;;6.75;88.79;101056.19;5028572;28;20103;-77
2022/04/12 06:18:10;;;;;;;7.95;3.47;;;;;;;7.10;87.26;101057.66;5030075;28;20033;-77
2022/04/12 06:20:36;;;;;;;5.30;3.00;;;;;;;6.98;85.69;101026.84;5029502;28;20033;-76
2022/04/12 06:23:02;;;;;;;12.07;4.25;;;;;;;6.10;85.51;100948.53;5028343;28;20288;-76
2022/04/12 06:25:27;;;;;;;4.40;2.67;;;;;;;6.07;88.22;101045.06;5030802;28;20025;-77
2022/04/12 06:27:53;;;;;;;5.90;3.07;;;;;;;5.99;89.01;101062.56;5011356;28;20842;-78
2022/04/12 06:30:26;;;;;;;10.03;3.53;;;;;;;5.63;90.12;101056.59;5013984;28;20036;-75
2022/04/12 06:32:52;;;;;;;6.45;2.53;;;;;;;5.89;90.80;101116.28;5029272;28;20034;-78
2022/04/12 06:35:18;;;;;;;9.07;3.92;;;;;;;5.66;90.84;101082.81;5031541;28;20017;-78
2022/04/12 06:37:46;;;;;;;8.88;4.03;;;;;;;5.67;91.64;101113.66;5029641;28;20468;-76
2022/04/12 06:40:13;;;;;;;6.03;3.15;;;;;;;5.56;92.87;101124.25;5028871;28;20063;-77
2022/04/12 06:42:39;;;;;;;5.63;2.72;;;;;;;5.53;93.00;101135.09;5031274;28;20065;-75
2022/04/12 06:45:07;;;;;;;9.52;3.85;;;;;;;5.43;92.95;101130.53;5012130;28;20025;-78
2022/04/12 06:47:33;;;;;;;7.45;3.38;;;;;;;5.46;93.28;101135.56;5030502;28;20041;-77
2022/04/12 06:49:59;;;;;;;9.63;4.13;;;;;;;5.41;93.63;101139.56;5031080;28;20036;-75
2022/04/12 06:52:24;;;;;;;5.30;3.30;;;;;;;5.47;93.83;101147.00;5030238;28;20427;-77
2022/04/12 06:54:50;;;;;;;36.43;6.40;;;;;;;5.63;93.14;101147.50;5030700;28;20075;-77
2022/04/12 06:57:16;;;;;;;6.65;3.88;;;;;;;5.60;92.12;101126.56;5029617;28;20482;-77
2022/04/12 06:59:42;;;;;;;8.38;3.85;;;;;;;5.75;92.68;101155.44;5029872;28;20398;-77
2022/04/12 07:02:08;;;;;;;14.57;3.03;;;;;;;5.54;91.82;101119.06;5028976;28;20036;-77
2022/04/12 07:04:33;;;;;;;5.30;2.72;;;;;;;5.63;92.40;101146.66;5013538;28;20284;-76
2022/04/12 07:06:59;;;;;;;6.65;3.97;;;;;;;5.65;92.75;101158.81;5029597;28;20133;-75
2022/04/12 07:09:29;;;;;;;6.13;3.00;;;;;;;5.79;93.11;101180.75;5012947;28;20402;-77
2022/04/12 07:11:58;;;;;;;11.25;3.53;;;;;;;5.62;92.14;101147.59;5025609;28;20076;-76
2022/04/12 07:14:24;;;;;;;6.78;3.50;;;;;;;5.76;93.26;101195.06;5012983;28;20583;-75
2022/04/12 07:16:49;;;;;;;;;;;;;;;5.85;93.24;101201.44;5030918;28;20079;-77
2022/04/12 07:19:15;;;;;;;13.00;3.70;;;;;;;5.71;93.67;101192.78;5028865;28;19912;-78
2022/04/12 07:21:41;;;;;;;8.13;3.75;;;;;;;5.64;93.20;101180.97;5017727;28;20491;-78
2022/04/12 07:24:07;;;;;;;7.75;3.50;;;;;;;5.88;94.72;101231.22;5028803;28;20052;-78
2022/04/12 07:26:33;;;;;;;8.88;3.75;;;;;;;5.85;93.56;101196.13;5029592;28;20080;-76
2022/04/12 07:28:59;;;;;;;8.68;4.18;;;;;;;6.14;94.79;101244.25;5030430;28;20033;-76
2022/04/12 07:31:25;;;;;;;14.80;5.68;;;;;;;6.27;94.34;101252.88;5012108;28;20029;-77
2022/04/12 07:33:51;;;;;;;9.25;4.57;;;;;;;6.32;92.99;101212.75;5029458;28;20033;-77
2022/04/12 07:36:16;;;;;;;7.30;3.77;;;;;;;6.53;91.80;101200.44;5029007;28;20075;-77
2022/04/12 07:38:42;;;;;;;10.63;4.60;;;;;;;6.87;91.84;101234.78;5027613;28;20291;-76
2022/04/12 07:41:09;;;;;;;6.90;3.60;;;;;;;6.94;89.10;101171.44;5029874;28;20040;-77
2022/04/12 07:43:37;;;;;;;10.63;4.22;;;;;;;7.09;86.39;101130.28;5028067;28;20045;-75
2022/04/12 07:46:04;;;;;;;11.32;4.72;;;;;;;7.09;85.36;101105.56;5027920;28;20116;-77
2022/04/12 07:48:29;;;;;;;8.27;3.95;;;;;;;7.28;84.34;101113.66;5027462;28;20037;-77
2022/04/12 07:50:55;;;;;;;5.07;3.83;;;;;;;7.41;84.09;101110.75;5027876;28;20024;-77
2022/04/12 07:53:20;;;;;;;8.20;3.70;;;;;;;7.56;83.69;101138.66;5029321;28;20303;-78
2022/04/12 07:55:46;;;;;;;4.13;3.17;;;;;;;7.62;83.62;101137.28;5028376;28;20025;-78
2022/04/12 07:58:11;;;;;;;7.50;3.63;;;;;;;7.07;82.50;101054.41;5030840;28;20041;-76
2022/04/12 08:00:36;;;;;;;11.73;4.50;;;;;;;7.04;83.87;101119.22;5012849;28;20275;-76
2022/04/12 08:03:02;;;;;;;10.13;3.80;;;;;;;7.11;84.46;101149.59;5028797;28;20534;-79
2022/04/12 08:05:27;;;;;;;7.83;4.20;;;;;;;7.29;84.62;101164.94;5028547;28;20405;-77
2022/04/12 08:07:53;;;;;;;12.07;3.40;;;;;;;7.45;83.29;101141.41;5025153;28;20086;-77
2022/04/12 08:10:19;;;;;;;8.40;3.80;;;;;;;7.33;82.53;101108.78;5028886;28;20164;-79
2022/04/12 08:12:45;;;;;;;8.45;4.70;;;;;;;7.47;83.32;101160.72;5028767;28;20565;-76
2022/04/12 08:15:12;;;;;;;6.75;3.92;;;;;;;7.54;82.37;101130.00;5028372;28;20025;-76
2022/04/12 08:17:37;;;;;;;;;;;;;;;7.47;83.06;101152.75;5029492;28;20175;-77
2022/04/12 08:20:03;;;;;;;;;;;;;;;7.45;83.05;101160.00;5029494;28;20003;-79
2022/04/12 08:22:29;;;;;;;6.75;3.95;;;;;;;7.28;82.04;101118.97;5030025;28;20396;-75
2022/04/12 08:24:54;;;;;;;6.80;4.07;;;;;;;7.82;82.81;101178.91;5029034;28;20025;-77
2022/04/12 08:27:19;;;;;;;9.73;4.37;;;;;;;8.10;82.21;101178.28;5020839;28;20051;-76
2022/04/12 08:29:46;;;;;;;11.03;4.37;;;;;;;8.06;82.39;101182.22;5021360;28;20029;-78
2022/04/12 08:32:11;;;;;;;9.95;4.22;;;;;;;8.19;82.18;101196.97;5013637;28;20545;-77
2022/04/12 08:34:37;;;;;;;13.80;4.10;;;;;;;8.41;80.08;101153.34;5029471;28;20029;-79
2022/04/12 08:37:05;;;;;;;12.70;4.53;;;;;;;8.61;79.47;101145.34;5022050;28;20037;-76
2022/04/12 08:39:30;;;;;;;7.40;3.47;;;;;;;8.60;80.58;101178.28;5013155;28;20037;-79
2022/04/12 08:41:58;;;;;;;6.47;3.50;;;;;;;9.11;81.76;101267.72;5028846;28;20063;-78
2022/04/12 08:44:24;;;;;;;10.45;3.88;;;;;;;9.42;79.11;101192.94;5013566;28;20030;-76
2022/04/12 08:46:50;;;;;;;7.35;3.95;;;;;;;9.53;78.80;101211.44;5033026;28;20116;-80
2022/04/12 08:49:16;;;;;;;7.43;4.17;;;;;;;9.22;74.48;101014.47;5009999;28;20061;-80
2022/04/12 08:51:42;;;;;;;10.77;4.43;;;;;;;8.85;74.42;101017.97;5029412;28;20280;-79
2022/04/12 08:54:09;;;;;;;10.50;4.43;;;;;;;8.65;74.91;101011.00;5013031;28;20033;-79
2022/04/12 08:56:35;;;;;;;8.35;4.03;;;;;;;8.92;74.81;101046.66;5029556;28;20040;-77
2022/04/12 08:59:00;;;;;;;10.93;4.30;;;;;;;9.66;72.83;101049.31;5030945;28;20029;-77
2022/04/12 09:01:25;;;;;;;7.93;4.10;;;;;;;9.67;72.10;101020.84;5028841;28;20346;-80
2022/04/12 09:03:51;;;;;;;11.37;3.90;;;;;;;10.27;72.04;101108.31;5028897;28;20033;-79
2022/04/12 09:06:16;;;;;;;10.90;4.47;;;;;;;10.52;70.04;101030.16;5011731;28;20061;-77
2022/04/12 09:08:42;;;;;;;8.33;3.87;;;;;;;9.87;70.39;100970.88;5018042;28;20641;-78
2022/04/12 09:11:08;;;;;;;8.10;4.93;;;;;;;9.52;70.60;100962.69;5029008;28;20800;-79
2022/04/12 09:13:35;;;;;;;9.73;4.45;;;;;;;9.63;71.03;101006.13;5028840;28;20040;-76
2022/04/12 09:16:01;;;;;;;5.70;4.38;;;;;;;10.03;70.31;101035.03;5028276;28;20037;-78
2022/04/12 09:18:41;;;;;;;9.88;4.13;;;;;;;9.26;68.97;100844.50;5031976;28;20056;-79
2022/04/12 09:21:17;;;;;;;12.05;4.18;;;;;;;10.00;71.56;101096.69;5028001;28;20483;-80
2022/04/12 09:23:54;;;;;;;10.80;4.50;;;;;;;10.78;67.86;101024.81;5011388;28;20124;-79
2022/04/12 09:26:26;;;;;;;9.32;4.32;;;;;;;10.27;66.51;100908.16;5023144;28;20091;-80
2022/04/12 09:28:55;;;;;;;8.27;3.97;;;;;;;10.83;65.43;100970.94;5029416;28;20052;-80
2022/04/12 09:31:21;;;;;;;11.40;4.70;;;;;;;11.10;64.18;100934.34;5028067;28;20045;-79
2022/04/12 09:33:49;;;;;;;9.85;3.88;;;;;;;11.90;64.52;101041.72;5030761;28;20093;-80
2022/04/12 09:36:14;;;;;;;9.65;4.47;;;;;;;10.77;61.88;100715.22;5029902;28;20025;-79
2022/04/12 09:38:42;;;;;;;14.40;6.00;;;;;;;12.30;61.96;100991.09;5012688;28;20439;-79
2022/04/12 09:41:25;;;;;;;6.28;3.90;;;;;;;12.53;59.38;100858.16;5022482;28;20044;-79
2022/04/12 09:44:11;;;;;;;10.75;4.55;;;;;;;12.23;58.63;100774.94;5011697;28;20061;-78
2022/04/12 09:46:38;;;;;;;13.07;6.97;;;;;;;12.67;57.43;100771.72;5012884;28;20371;-79
2022/04/12 09:49:06;;;;;;;7.38;4.40;;;;;;;11.93;57.09;100636.56;5022770;28;20033;-76
2022/04/12 09:51:36;;;;;;;5.32;4.05;;;;;;;12.81;56.08;100770.16;5031187;28;20041;-78
2022/04/12 09:54:02;;;;;;;10.10;4.32;;;;;;;12.95;55.77;100771.25;5013012;28;20029;-79
2022/04/12 09:56:29;;;;;;;11.93;4.72;;;;;;;12.71;56.20;100710.59;5017542;28;20033;-79
2022/04/12 09:59:00;;;;;;;7.53;4.35;;;;;;;13.44;53.76;100684.25;5030777;28;20030;-78
2022/04/12 10:01:27;;;;;;;7.28;4.47;;;;;;;12.80;53.75;100590.81;5013667;28;20117;-79
2022/04/12 10:03:55;;;;;;;6.53;3.95;;;;;;;13.24;52.28;100521.19;5032172;28;20536;-78
2022/04/12 10:06:24;;;;;;;6.13;4.32;;;;;;;12.82;53.82;100616.41;5014424;28;20035;-77
2022/04/12 10:09:00;;;;;;;7.75;3.67;;;;;;;13.77;53.29;100757.19;5030580;28;20421;-79
2022/04/12 10:11:26;;;;;;;7.15;4.38;;;;;;;13.59;53.39;100711.09;5031082;28;20037;-79
2022/04/12 10:13:52;;;;;;;9.05;4.93;;;;;;;12.77;51.72;100423.25;5019906;28;20532;-79
2022/04/12 10:16:22;;;;;;;12.25;4.30;;;;;;;12.90;52.94;100588.75;5028674;28;20049;-78
2022/04/12 10:18:49;;;;;;;5.53;4.10;;;;;;;13.81;52.94;100752.28;5026926;28;20045;-79
2022/04/12 10:21:15;;;;;;;;;;;;;;;13.79;50.97;100556.59;5029057;28;20029;-79
2022/04/12 10:23:42;;;;;;;;;;;;;;;13.18;53.33;100639.03;5025059;28;19920;-78
2022/04/12 10:26:08;;;;;;;11.70;4.40;;;;;;;14.10;52.30;100751.47;5025268;28;20007;-77
2022/04/12 10:28:35;;;;;;;5.07;4.50;;;;;;;14.04;49.91;100529.41;5014989;28;20513;-79
2022/04/12 10:31:12;;;;;;;6.30;4.80;;;;;;;13.71;50.15;100444.03;5028529;28;20064;-78
2022/04/12 10:33:38;;;;;;;5.38;4.47;;;;;;;13.48;52.31;100603.22;5011417;28;20045;-78
2022/04/12 10:36:06;;;;;;;8.00;4.82;;;;;;;14.91;51.05;100759.50;5021126;28;20029;-76
2022/04/12 10:38:42;;;;;;;11.77;4.45;;;;;;;15.18;50.66;100772.19;5028979;28;20037;-78
2022/04/12 10:41:29;;;;;;;6.45;4.32;;;;;;;14.77;50.03;100651.03;5028471;28;20086;-78
2022/04/12 10:43:58;;;;;;;9.15;4.97;;;;;;;13.84;50.60;100505.88;5025264;28;20069;-78
2022/04/12 10:46:26;;;;;;;9.63;5.07;;;;;;;12.80;51.69;100405.97;5024705;28;20573;-77
2022/04/12 10:48:55;;;;;;;8.27;5.78;;;;;;;12.55;52.42;100408.09;5011282;28;20037;-78
2022/04/12 10:51:38;;;;;;;8.07;4.90;;;;;;;13.32;51.51;100525.66;5027545;28;20021;-78
2022/04/12 10:54:23;;;;;;;11.43;6.22;;;;;;;12.54;51.94;100444.75;5010716;28;20439;-78
2022/04/12 10:57:24;;;;;;;9.13;6.03;;;;;;;13.32;52.59;100640.13;5019195;28;20041;-77
2022/04/12 10:59:54;;;;;;;8.85;6.18;;;;;;;13.08;52.05;100516.84;5006996;28;20403;-77
2022/04/12 11:02:20;;;;;;;9.82;5.57;;;;;;;13.15;50.75;100441.06;5012002;28;20512;-79
2022/04/12 11:04:45;;;;;;;9.45;5.43;;;;;;;13.57;51.31;100587.06;5027525;28;20029;-79
2022/04/12 11:07:27;;;;;;;12.07;6.57;;;;;;;13.06;51.45;100456.41;5010734;28;20029;-79
2022/04/12 11:10:07;;;;;;;14.93;5.93;;;;;;;12.76;52.48;100469.81;5027258;28;20044;-78
2022/04/12 11:12:41;;;;;;;12.63;5.97;;;;;;;12.05;53.25;100391.66;5028092;28;20545;-79
2022/04/12 11:15:23;;;;;;;13.35;6.00;;;;;;;11.87;53.94;100417.88;5010828;28;20033;-79
2022/04/12 11:18:02;;;;;;;14.75;5.22;;;;;;;12.20;54.19;100482.72;5010387;28;20561;-78
2022/04/12 11:20:29;;;;;;;11.80;5.68;;;;;;;11.70;54.14;100385.06;5030945;28;20076;-78
2022/04/12 11:22:56;;;;;;;10.00;6.05;;;;;;;11.86;54.93;100501.81;5001799;28;20026;-78
2022/04/12 11:25:22;;;;;;;9.40;6.18;;;;;;;11.29;55.63;100423.59;5004761;28;20043;-78